Portada
METAR-TAF:

METAR-TAF

Aeroports :

Nova Delhi, Índia

latitud: 28-34N, longitud: 077-07E, altitud: 220 m

Observació

L'informe es va fer fa 22 minuts, a les 16:30 UTC
Vent calma
Temperatura 17°C
Humitat 68%
Pressió 1015 hPa
Visibilitat: 2200 m
fum

METAR: VIDP 011630Z 00000KT 2200 FU NSC 17/11 Q1015 NOSIG

Hora: 22:22 (16:52 UTC)

Pronòstic

L'informe es va fer fa 2 hores i 52 minuts, a les 14:00 UTC
Pronòstic vàlid del 01 a les 15 UTC al 01 a les 24 UTC
Vent 4 kt del Oest
Visibilitat: 1800 m
Escasses núvols a una alçada de 10000 ft
fum, boirina
Evolucionant progressivament
l' 01 a les 19 UTC al 01 a les 21 UTC
Vent 4 kt del Sud-Oest
Visibilitat: 1300 m
boirina

TAF: VIDP 011400Z 0115/0124 26004KT 1800 FU BR FEW100 BECMG 0119/0121 23004KT 1300 BR

Observacions i pronòstics meteorològics de més de 4000 aeroports (METAR i TAF).

Les estacions disponibles són els punts grocs i vermells al mapa.

Posi el ratolí al punt desitjat per veure el nom de l'estació.

Feu clic per veure les observacions i els pronòstics meteorològics.

Per canviar el mapa: feu clic els botons verds amb una creu de color negre per apropar; al botó verd amb un guió per allunyar la imatge; o en les fletxes verdes per a mapes adjacents.


METAR-TAF: